KCXO

Conroe-North Houston Regional Airport

Houston, Texas, USA
METAR KCXO 230253Z AUTO 00000KT 10SM CLR 22/22 A2998 RMK AO2 SLP149 T02220222 53014
Observed Flight Rules
May-23 @ 02:53 UTC (17 minutes ago) Visual Flight Rules
Visibility Clouds
10 miles
  • Clear skies
Temperatures Readings
Current 22°C / 72°F
Dewpoint 22°C / 72°F
Humidity 100%
Altimeter 29.98" Hg
Pressure 1014.9 hPa
Elevation 75
METAR KCXO 230253Z AUTO 00000KT 10SM CLR 22/22 A2998 RMK AO2 SLP149 T02220222 53014
Observed Flight Rules
May-23 @ 02:53 UTC
(17 minutes ago)
VFR
Clouds
  • Clear skies
Temperature Dewpoint
22°C / 72°F 22°C / 72°F
Humidity Altimeter Pressure
100% 29.98" Hg 1014.9 hPa